In Rescue
 
Open Full Screen Window  High Contrast Mode
Wind Gusting 00 knots
05
March 19, 2019 7:24 PM EDT
Weather Information
Wind Direction
  280 °
Wind Speed
  05 kt (6 mph)
Wind Gust
  00 kt (0 mph)
Altimeter
30.28 in
Visibility
10 SM
Temperature
07° C
45° F
Dewpoint
-06° C
21° F
Humidity
39%
1hr Rain Fall
00.00 in.
24hr Rain Fall
00.00 in.
Sky Condition
Clear
VFR

METAR KFPK 192324Z AUTO 28005KT 10SM CLR 07/M06 A3028 RMK AO2 T00651061

FAA Disclaimer: The data displayed is for advisory purposes only and is not to be used for flight planning or operations.